Time;durP1;ratioP1;P1;durP2;ratioP2;P2;SDS_P1;SDS_P2;PMS_P1;PMS_P2;Temp;Humidity;BMP_temperature;BMP_pressure;BME280_temperature;BME280_humidity;BME280_pressure;Samples;Min_cycle;Max_cycle;Signal;HPM_P1;HPM_P2
2024/01/08 00:00:50;;;;;;;3.60;2.58;;;-0.30;99.90;;;;;;5050500;28;20163;-52
2024/01/08 00:03:15;;;;;;;3.00;2.13;;;-0.30;99.90;;;;;;5050995;28;20619;-53
2024/01/08 00:05:41;;;;;;;2.45;1.98;;;-0.30;99.90;;;;;;5050475;28;20199;-53
2024/01/08 00:08:08;;;;;;;5.95;2.17;;;-0.20;99.90;;;;;;5050555;28;20171;-54
2024/01/08 00:10:35;;;;;;;2.65;2.25;;;-0.20;99.90;;;;;;5050530;28;20163;-53
2024/01/08 00:13:00;;;;;;;2.92;2.28;;;-0.30;99.90;;;;;;5050402;28;20199;-53
2024/01/08 00:15:26;;;;;;;3.15;2.85;;;-0.20;99.90;;;;;;5050256;28;20179;-45
2024/01/08 00:17:51;;;;;;;2.95;2.67;;;-0.20;99.90;;;;;;5050654;28;20166;-46
2024/01/08 00:20:17;;;;;;;2.90;2.58;;;-0.20;99.90;;;;;;5051224;28;20209;-46
2024/01/08 00:22:43;;;;;;;4.07;2.70;;;-0.20;99.90;;;;;;5050515;28;20171;-45
2024/01/08 00:25:08;;;;;;;3.90;2.30;;;-0.10;99.90;;;;;;5050747;28;20713;-45
2024/01/08 00:27:34;;;;;;;4.22;2.78;;;-0.20;99.90;;;;;;5050712;28;20710;-46
2024/01/08 00:30:00;;;;;;;5.05;3.53;;;-0.10;99.90;;;;;;5050641;28;20163;-47
2024/01/08 00:32:25;;;;;;;6.22;3.03;;;-0.10;99.90;;;;;;5050930;28;20198;-46
2024/01/08 00:34:51;;;;;;;4.53;3.30;;;-0.10;99.90;;;;;;5050859;28;20171;-47
2024/01/08 00:37:17;;;;;;;6.35;3.25;;;-0.10;99.90;;;;;;5051079;28;20159;-46
2024/01/08 00:39:43;;;;;;;4.20;2.88;;;-0.10;99.90;;;;;;5050485;28;20167;-47
2024/01/08 00:42:09;;;;;;;5.68;3.65;;;-0.20;99.90;;;;;;5052032;28;20638;-46
2024/01/08 00:44:34;;;;;;;3.60;2.15;;;-0.20;99.90;;;;;;5054249;28;20532;-45
2024/01/08 00:47:00;;;;;;;3.95;2.85;;;-0.20;99.90;;;;;;5054006;28;20637;-47
2024/01/08 00:49:25;;;;;;;3.25;2.55;;;-0.20;99.90;;;;;;5053945;28;20646;-46
2024/01/08 00:51:51;;;;;;;4.43;3.45;;;-0.20;99.90;;;;;;5053895;28;20647;-46
2024/01/08 00:54:16;;;;;;;4.22;2.90;;;-0.20;99.90;;;;;;5054253;28;20206;-44
2024/01/08 00:56:43;;;;;;;3.92;2.80;;;-0.20;99.90;;;;;;5053598;28;20297;-46
2024/01/08 00:59:08;;;;;;;4.90;3.35;;;-0.20;99.90;;;;;;5053703;28;20198;-46
2024/01/08 01:01:34;;;;;;;3.38;2.47;;;-0.10;99.90;;;;;;5053272;28;20213;-46
2024/01/08 01:04:00;;;;;;;4.00;3.08;;;-0.10;99.90;;;;;;5053943;28;20571;-46
2024/01/08 01:06:25;;;;;;;5.38;3.60;;;-0.10;99.90;;;;;;5053673;28;20159;-47
2024/01/08 01:08:51;;;;;;;4.47;3.25;;;-0.10;99.90;;;;;;5053779;28;20189;-49
2024/01/08 01:11:17;;;;;;;5.00;3.30;;;-0.10;99.90;;;;;;5053985;28;20169;-47
2024/01/08 01:13:42;;;;;;;3.78;2.72;;;-0.20;99.90;;;;;;5053654;28;20237;-46
2024/01/08 01:16:08;;;;;;;3.72;2.80;;;-0.20;99.90;;;;;;5053390;28;20166;-45
2024/01/08 01:18:34;;;;;;;3.88;2.63;;;-0.20;99.90;;;;;;5053313;28;20212;-46
2024/01/08 01:21:00;;;;;;;3.95;2.78;;;-0.10;99.90;;;;;;5053374;28;20249;-45
2024/01/08 01:23:25;;;;;;;3.45;2.65;;;-0.10;99.90;;;;;;5053420;28;20642;-45
2024/01/08 01:25:51;;;;;;;3.97;2.88;;;-0.10;99.90;;;;;;5053448;28;20179;-45
2024/01/08 01:28:17;;;;;;;3.88;2.60;;;-0.10;99.90;;;;;;5053949;28;20201;-47
2024/01/08 01:30:43;;;;;;;4.13;2.78;;;-0.10;99.90;;;;;;5053156;28;20162;-45
2024/01/08 01:33:08;;;;;;;3.17;2.38;;;-0.10;99.90;;;;;;5053015;28;20677;-46
2024/01/08 01:35:34;;;;;;;4.57;2.75;;;-0.10;99.90;;;;;;5053314;28;20173;-46
2024/01/08 01:37:59;;;;;;;3.42;2.67;;;-0.10;99.90;;;;;;5053002;28;20185;-46
2024/01/08 01:40:25;;;;;;;2.88;2.40;;;-0.10;99.90;;;;;;5053036;28;20159;-45
2024/01/08 01:42:54;;;;;;;4.07;2.97;;;-0.10;99.90;;;;;;5052808;28;20178;-46
2024/01/08 01:45:21;;;;;;;5.65;2.72;;;-0.10;99.90;;;;;;5052888;28;20191;-47
2024/01/08 01:47:47;;;;;;;3.60;2.90;;;-0.20;99.90;;;;;;5053354;28;20210;-46
2024/01/08 01:50:13;;;;;;;6.82;3.30;;;-0.20;99.90;;;;;;5052740;28;20171;-47
2024/01/08 01:52:40;;;;;;;7.13;2.60;;;-0.20;99.90;;;;;;5052722;28;20181;-47
2024/01/08 01:55:06;;;;;;;2.83;2.20;;;-0.20;99.90;;;;;;5051905;28;20712;-45
2024/01/08 01:57:33;;;;;;;2.95;2.28;;;-0.30;99.90;;;;;;5052881;28;20171;-46
2024/01/08 01:59:59;;;;;;;6.15;3.53;;;-0.30;99.90;;;;;;5052604;28;20167;-46
2024/01/08 02:02:27;;;;;;;6.85;3.88;;;-0.30;99.90;;;;;;5052555;28;20177;-46
2024/01/08 02:04:55;;;;;;;4.45;3.03;;;-0.30;99.90;;;;;;5052550;28;20216;-45
2024/01/08 02:07:20;;;;;;;3.28;2.13;;;-0.30;99.90;;;;;;5052347;28;20638;-46
2024/01/08 02:09:46;;;;;;;6.07;3.97;;;-0.30;99.90;;;;;;5052826;28;20162;-46
2024/01/08 02:12:16;;;;;;;2.90;1.92;;;-0.20;99.90;;;;;;5052341;28;20166;-46
2024/01/08 02:14:43;;;;;;;3.67;2.63;;;-0.40;99.90;;;;;;5052160;28;20606;-46
2024/01/08 02:17:08;;;;;;;4.75;3.45;;;-0.40;99.90;;;;;;5052554;28;20661;-45
2024/01/08 02:19:34;;;;;;;4.63;2.88;;;-0.30;99.90;;;;;;5052172;28;20255;-47
2024/01/08 02:21:59;;;;;;;4.53;2.53;;;-0.40;99.90;;;;;;5052146;28;20212;-51
2024/01/08 02:24:27;;;;;;;4.97;3.17;;;-0.50;99.90;;;;;;5052116;28;20167;-48
2024/01/08 02:26:53;;;;;;;4.75;3.53;;;-0.40;99.90;;;;;;5052110;28;20523;-48
2024/01/08 02:29:21;;;;;;;3.83;2.70;;;-0.40;99.90;;;;;;5051987;28;20162;-49
2024/01/08 02:31:47;;;;;;;2.88;2.58;;;-0.40;99.90;;;;;;5052445;28;20515;-48
2024/01/08 02:34:13;;;;;;;7.53;3.78;;;-0.40;99.90;;;;;;5051827;28;20237;-49
2024/01/08 02:36:38;;;;;;;5.35;3.20;;;-0.40;99.90;;;;;;5051904;28;20638;-51
2024/01/08 02:39:05;;;;;;;3.47;2.97;;;-0.40;99.90;;;;;;5052077;28;20264;-45
2024/01/08 02:41:30;;;;;;;7.03;3.80;;;-0.50;99.90;;;;;;5052064;28;20240;-45
2024/01/08 02:43:56;;;;;;;3.40;2.83;;;-0.50;99.90;;;;;;5051801;28;20523;-45
2024/01/08 02:46:22;;;;;;;4.10;2.95;;;-0.50;99.90;;;;;;5051705;28;20173;-44
2024/01/08 02:48:47;;;;;;;4.38;3.17;;;-0.60;99.90;;;;;;5052272;28;20171;-45
2024/01/08 02:51:14;;;;;;;2.85;2.45;;;-0.60;99.90;;;;;;5051636;28;20245;-46
2024/01/08 02:53:40;;;;;;;7.53;3.78;;;-0.70;99.90;;;;;;5051506;28;20198;-45
2024/01/08 02:56:05;;;;;;;3.58;2.50;;;-0.60;99.90;;;;;;5051349;28;20724;-45
2024/01/08 02:58:31;;;;;;;4.93;3.30;;;-0.60;99.90;;;;;;5051512;28;20601;-45
2024/01/08 03:00:59;;;;;;;4.35;2.78;;;-0.60;99.90;;;;;;5051491;28;20561;-45
2024/01/08 03:03:25;;;;;;;4.75;3.13;;;-0.70;99.90;;;;;;5051701;28;20171;-45
2024/01/08 03:05:50;;;;;;;5.93;3.78;;;-0.60;99.90;;;;;;5050551;28;20567;-45
2024/01/08 03:08:16;;;;;;;4.90;2.95;;;-0.60;99.90;;;;;;5051839;28;20163;-45
2024/01/08 03:10:41;;;;;;;5.13;3.90;;;-0.50;99.90;;;;;;5051346;28;20206;-46
2024/01/08 03:13:07;;;;;;;6.25;3.80;;;-0.50;99.90;;;;;;5051253;28;20226;-45
2024/01/08 03:15:33;;;;;;;4.15;3.22;;;-0.50;99.90;;;;;;5051552;28;20158;-46
2024/01/08 03:17:58;;;;;;;6.05;3.60;;;-0.50;99.90;;;;;;5051311;28;20170;-45
2024/01/08 03:20:24;;;;;;;5.88;3.85;;;-0.60;99.90;;;;;;5051312;28;20159;-45
2024/01/08 03:22:51;;;;;;;7.72;3.92;;;-0.60;99.90;;;;;;5051198;28;20167;-45
2024/01/08 03:25:16;;;;;;;5.75;3.70;;;-0.60;99.90;;;;;;5051604;28;20635;-45
2024/01/08 03:27:42;;;;;;;6.85;4.78;;;-0.60;99.90;;;;;;5051137;28;20174;-45
2024/01/08 03:30:08;;;;;;;7.60;4.55;;;-0.60;99.90;;;;;;5051176;28;20944;-46
2024/01/08 03:32:34;;;;;;;6.72;4.28;;;-0.50;99.90;;;;;;5051003;28;20170;-47
2024/01/08 03:34:59;;;;;;;5.05;3.42;;;-0.60;99.90;;;;;;5051086;28;20174;-45
2024/01/08 03:37:25;;;;;;;7.70;3.85;;;-0.60;99.90;;;;;;5051307;28;20178;-45
2024/01/08 03:39:50;;;;;;;6.60;4.13;;;-0.60;99.90;;;;;;5051010;28;20179;-45
2024/01/08 03:42:16;;;;;;;5.22;3.13;;;-0.60;99.90;;;;;;5051485;28;20567;-45
2024/01/08 03:44:41;;;;;;;5.40;3.60;;;-0.70;99.90;;;;;;5051196;28;20542;-45
2024/01/08 03:47:07;;;;;;;8.20;5.10;;;-0.70;99.90;;;;;;5051195;28;20228;-45
2024/01/08 03:49:32;;;;;;;6.53;4.22;;;-0.70;99.90;;;;;;5050954;28;20300;-45
2024/01/08 03:51:58;;;;;;;4.20;3.15;;;-0.70;99.90;;;;;;5050933;28;20171;-43
2024/01/08 03:54:24;;;;;;;6.78;4.25;;;-0.70;99.90;;;;;;5050617;28;20297;-44
2024/01/08 03:56:49;;;;;;;7.65;5.00;;;-0.70;99.90;;;;;;5050696;28;20249;-43
2024/01/08 03:59:15;;;;;;;8.95;4.80;;;-0.70;99.90;;;;;;5051509;28;20167;-43
2024/01/08 04:01:45;;;;;;;6.85;4.63;;;-0.60;99.90;;;;;;5050724;28;20167;-45
2024/01/08 04:04:11;;;;;;;6.65;4.63;;;-0.70;99.90;;;;;;5051143;28;20171;-45
2024/01/08 04:06:37;;;;;;;9.90;4.45;;;-0.70;99.90;;;;;;5051039;28;20178;-45
2024/01/08 04:09:03;;;;;;;4.75;3.70;;;-0.80;99.90;;;;;;5050768;28;20209;-46
2024/01/08 04:11:29;;;;;;;7.13;3.63;;;-0.80;99.90;;;;;;5050945;28;20163;-46
2024/01/08 04:13:55;;;;;;;7.80;4.50;;;-0.70;99.90;;;;;;5051029;28;20326;-46
2024/01/08 04:16:21;;;;;;;10.85;6.13;;;-0.80;99.90;;;;;;5050913;28;20656;-45
2024/01/08 04:18:46;;;;;;;7.28;5.47;;;-0.70;99.90;;;;;;5055037;28;20170;-47
2024/01/08 04:21:16;;;;;;;10.40;6.95;;;-0.70;99.90;;;;;;5054507;28;20167;-46
2024/01/08 04:23:42;;;;;;;9.18;4.95;;;-0.70;99.90;;;;;;5054471;28;20167;-46
2024/01/08 04:26:14;;;;;;;10.35;6.38;;;-0.70;99.90;;;;;;5054385;28;20178;-47
2024/01/08 04:28:40;;;;;;;10.07;6.40;;;-0.70;99.90;;;;;;5054594;28;20175;-46
2024/01/08 04:31:05;;;;;;;9.50;6.65;;;-0.70;99.90;;;;;;5054529;28;20509;-46
2024/01/08 04:33:31;;;;;;;8.13;4.97;;;-0.70;99.90;;;;;;5054109;28;20560;-48
2024/01/08 04:35:56;;;;;;;10.10;6.75;;;-0.70;99.90;;;;;;5054272;28;20630;-45
2024/01/08 04:38:22;;;;;;;13.60;7.57;;;-0.70;99.90;;;;;;5054129;28;20170;-46
2024/01/08 04:40:47;;;;;;;8.73;5.70;;;-0.60;99.90;;;;;;5054724;28;20300;-45
2024/01/08 04:43:13;;;;;;;7.95;5.45;;;-0.70;99.90;;;;;;5054035;28;20170;-45
2024/01/08 04:45:38;;;;;;;11.73;6.53;;;-0.60;99.90;;;;;;5053939;28;20212;-45
2024/01/08 04:48:04;;;;;;;9.77;6.25;;;-0.60;99.90;;;;;;5054005;28;20254;-45
2024/01/08 04:50:30;;;;;;;11.68;6.95;;;-0.60;99.90;;;;;;5054198;28;20166;-45
2024/01/08 04:52:56;;;;;;;9.38;6.28;;;-0.60;99.90;;;;;;5054046;28;20191;-45
2024/01/08 04:55:21;;;;;;;10.77;6.47;;;-0.50;99.90;;;;;;5053708;28;20705;-46
2024/01/08 04:57:48;;;;;;;10.35;6.63;;;-0.50;99.90;;;;;;5054234;28;20170;-45
2024/01/08 05:00:14;;;;;;;8.80;5.85;;;-0.50;99.90;;;;;;5054348;28;20178;-45
2024/01/08 05:02:40;;;;;;;8.65;6.07;;;-0.50;99.90;;;;;;5053733;28;20171;-45
2024/01/08 05:05:07;;;;;;;10.80;6.65;;;-0.50;99.90;;;;;;5053924;28;20194;-45
2024/01/08 05:07:32;;;;;;;8.52;6.25;;;-0.40;99.90;;;;;;5053676;28;20162;-45
2024/01/08 05:09:58;;;;;;;8.13;4.82;;;-0.40;99.90;;;;;;5053676;28;20181;-45
2024/01/08 05:12:24;;;;;;;6.72;4.78;;;-0.50;99.90;;;;;;5053799;28;20167;-45
2024/01/08 05:14:50;;;;;;;10.13;6.43;;;-0.60;99.90;;;;;;5053641;28;20633;-45
2024/01/08 05:17:16;;;;;;;9.27;5.88;;;-0.60;99.90;;;;;;5053814;28;20250;-45
2024/01/08 05:19:42;;;;;;;10.02;6.22;;;-0.50;99.90;;;;;;5053402;28;20166;-45
2024/01/08 05:22:08;;;;;;;10.15;6.35;;;-0.50;99.90;;;;;;5053322;28;20171;-45
2024/01/08 05:24:33;;;;;;;9.93;7.43;;;-0.60;99.90;;;;;;5053265;28;20159;-45
2024/01/08 05:26:59;;;;;;;9.43;6.45;;;-0.60;99.90;;;;;;5053372;28;20225;-45
2024/01/08 05:29:24;;;;;;;10.95;7.13;;;-0.60;99.90;;;;;;5051958;28;20254;-45
2024/01/08 05:31:50;;;;;;;9.00;5.93;;;-0.50;99.90;;;;;;5053054;28;20238;-45
2024/01/08 05:34:16;;;;;;;8.40;5.70;;;-0.50;99.90;;;;;;5053463;28;20241;-45
2024/01/08 05:36:42;;;;;;;11.50;6.07;;;-0.60;99.90;;;;;;5053250;28;20191;-45
2024/01/08 05:39:08;;;;;;;8.30;6.28;;;-0.50;99.90;;;;;;5053254;28;21071;-44
2024/01/08 05:41:37;;;;;;;7.82;5.80;;;-0.50;99.90;;;;;;5052935;28;20657;-44
2024/01/08 05:44:03;;;;;;;8.93;6.00;;;-0.50;99.90;;;;;;5052810;28;20196;-44
2024/01/08 05:46:29;;;;;;;10.50;6.70;;;-0.40;99.90;;;;;;5052828;28;20175;-44
2024/01/08 05:48:55;;;;;;;10.48;5.68;;;-0.50;99.90;;;;;;5052532;28;20546;-45
2024/01/08 05:51:20;;;;;;;10.20;6.30;;;-0.50;99.90;;;;;;5052531;28;20181;-46
2024/01/08 05:53:46;;;;;;;10.48;6.35;;;-0.50;99.90;;;;;;5053101;28;20206;-46
2024/01/08 05:56:11;;;;;;;10.57;6.28;;;-0.50;99.90;;;;;;5052472;28;20214;-45
2024/01/08 05:58:37;;;;;;;10.25;6.40;;;-0.50;99.90;;;;;;5052640;28;20524;-51
2024/01/08 06:01:03;;;;;;;7.15;5.72;;;-0.50;99.90;;;;;;5052754;28;20174;-46
2024/01/08 06:03:28;;;;;;;9.95;5.85;;;-0.40;99.90;;;;;;5052527;28;20642;-46
2024/01/08 06:05:54;;;;;;;11.13;6.43;;;-0.50;99.90;;;;;;5052521;28;20171;-44
2024/01/08 06:08:19;;;;;;;14.35;7.70;;;-0.50;99.90;;;;;;5052444;28;20174;-43
2024/01/08 06:10:47;;;;;;;8.73;5.30;;;-0.40;99.90;;;;;;5052795;28;20543;-44
2024/01/08 06:13:13;;;;;;;10.52;5.78;;;-0.40;99.90;;;;;;5052901;28;20222;-44
2024/01/08 06:15:38;;;;;;;10.43;6.90;;;-0.50;99.90;;;;;;5052278;28;20601;-45
2024/01/08 06:18:04;;;;;;;9.13;6.28;;;-0.50;99.90;;;;;;5052150;28;20212;-45
2024/01/08 06:20:30;;;;;;;8.50;5.95;;;-0.50;99.90;;;;;;5052169;28;20673;-47
2024/01/08 06:22:56;;;;;;;10.95;7.13;;;-0.60;99.90;;;;;;5052396;28;20190;-47
2024/01/08 06:25:22;;;;;;;9.30;6.25;;;-0.50;99.90;;;;;;5050800;28;20236;-47
2024/01/08 06:27:47;;;;;;;10.38;6.22;;;-0.60;99.90;;;;;;5052240;28;20178;-46
2024/01/08 06:30:13;;;;;;;5.88;3.10;;;-2.40;99.90;;;;;;5052445;28;20654;-47
2024/01/08 06:32:39;;;;;;;10.60;7.03;;;-0.60;99.90;;;;;;5051735;28;20194;-47
2024/01/08 06:35:04;;;;;;;10.32;7.47;;;-0.60;99.90;;;;;;5051764;28;20576;-46
2024/01/08 06:37:30;;;;;;;11.18;7.35;;;-0.60;99.90;;;;;;5051609;28;20174;-45
2024/01/08 06:39:55;;;;;;;7.57;5.35;;;-0.60;99.90;;;;;;5051633;28;20179;-47
2024/01/08 06:42:21;;;;;;;8.48;5.93;;;-0.70;99.90;;;;;;5051837;28;20166;-45
2024/01/08 06:44:47;;;;;;;6.95;4.05;;;-0.60;99.90;;;;;;5052262;28;20158;-49
2024/01/08 06:47:12;;;;;;;11.40;7.03;;;-0.60;99.90;;;;;;5051633;28;20622;-45
2024/01/08 06:49:38;;;;;;;9.38;5.32;;;-0.60;99.90;;;;;;5051731;28;20631;-48
2024/01/08 06:52:04;;;;;;;10.73;6.70;;;-0.60;99.90;;;;;;5050385;28;20296;-47
2024/01/08 06:54:29;;;;;;;10.85;6.65;;;-0.60;99.90;;;;;;5051560;28;20221;-46
2024/01/08 06:56:55;;;;;;;11.50;6.75;;;-0.60;99.90;;;;;;5050188;28;20697;-46
2024/01/08 06:59:21;;;;;;;11.05;6.15;;;-0.50;99.90;;;;;;5051815;28;20185;-47
2024/01/08 07:01:48;;;;;;;9.30;5.82;;;-0.60;99.90;;;;;;5051922;28;20189;-45
2024/01/08 07:04:14;;;;;;;9.82;6.43;;;-0.60;99.90;;;;;;5052162;28;20240;-45
2024/01/08 07:06:39;;;;;;;9.07;6.85;;;-0.50;99.90;;;;;;5051406;28;20163;-50
2024/01/08 07:09:06;;;;;;;10.10;6.82;;;-0.50;99.90;;;;;;5051302;28;20506;-48
2024/01/08 07:11:31;;;;;;;9.75;6.07;;;-0.50;99.90;;;;;;5051555;28;20166;-45
2024/01/08 07:13:58;;;;;;;7.43;5.60;;;-0.50;99.90;;;;;;5049983;28;20255;-45
2024/01/08 07:16:24;;;;;;;6.25;4.78;;;-0.60;99.90;;;;;;5051576;28;20244;-46
2024/01/08 07:18:50;;;;;;;8.40;5.20;;;-0.60;99.90;;;;;;5051491;28;20182;-46
2024/01/08 07:21:16;;;;;;;11.50;6.45;;;-0.60;99.90;;;;;;5051980;28;20166;-46
2024/01/08 07:23:44;;;;;;;8.63;4.88;;;-0.60;99.90;;;;;;5051024;28;20178;-44
2024/01/08 07:26:10;;;;;;;7.35;4.60;;;-0.60;99.90;;;;;;5051144;28;20163;-47
2024/01/08 07:28:36;;;;;;;7.75;3.75;;;-3.10;99.90;;;;;;5051189;28;20169;-46
2024/01/08 07:31:03;;;;;;;7.97;4.28;;;-0.70;99.90;;;;;;5051407;28;20210;-46
2024/01/08 07:33:29;;;;;;;12.23;4.72;;;-0.70;99.90;;;;;;5051071;28;20233;-46
2024/01/08 07:35:55;;;;;;;9.18;5.70;;;-0.60;99.90;;;;;;5051143;28;20167;-48
2024/01/08 07:38:21;;;;;;;9.82;4.63;;;-0.60;99.90;;;;;;5051138;28;20229;-47
2024/01/08 07:40:47;;;;;;;6.82;4.60;;;-0.50;99.90;;;;;;5051564;28;20167;-47
2024/01/08 07:43:13;;;;;;;7.32;4.55;;;-0.50;99.90;;;;;;5051640;28;20236;-46
2024/01/08 07:45:39;;;;;;;9.27;5.45;;;-0.50;99.90;;;;;;5050996;28;20524;-46
2024/01/08 07:48:05;;;;;;;8.27;5.00;;;-0.50;99.90;;;;;;5050872;28;20242;-46
2024/01/08 07:50:31;;;;;;;6.63;3.78;;;-0.50;99.90;;;;;;5050936;28;20166;-45
2024/01/08 07:52:56;;;;;;;9.30;4.85;;;-0.50;99.90;;;;;;5053811;28;20171;-47
2024/01/08 07:55:22;;;;;;;6.85;5.32;;;-0.50;99.90;;;;;;5054734;28;20233;-45
2024/01/08 07:57:47;;;;;;;7.85;4.45;;;-0.40;99.90;;;;;;5055207;28;20637;-45
2024/01/08 08:00:13;;;;;;;8.07;4.60;;;-0.40;99.90;;;;;;5055604;28;20285;-48
2024/01/08 08:02:39;;;;;;;12.32;4.85;;;-0.40;99.90;;;;;;5054760;28;20253;-46
2024/01/08 08:05:05;;;;;;;7.07;4.53;;;-0.40;99.90;;;;;;5054814;28;20261;-46
2024/01/08 08:07:32;;;;;;;7.97;5.13;;;-0.40;99.90;;;;;;5054964;28;20177;-45
2024/01/08 08:09:58;;;;;;;7.70;4.65;;;-0.30;99.90;;;;;;5054791;28;20182;-48
2024/01/08 08:12:23;;;;;;;6.68;3.88;;;-0.30;99.90;;;;;;5054649;28;20167;-47
2024/01/08 08:14:49;;;;;;;6.75;3.72;;;-0.30;99.90;;;;;;5054525;28;20554;-46
2024/01/08 08:17:15;;;;;;;4.32;3.03;;;-0.30;99.90;;;;;;5055261;28;20261;-46
2024/01/08 08:19:42;;;;;;;6.47;4.50;;;-0.20;99.90;;;;;;5054771;28;20175;-45
2024/01/08 08:22:11;;;;;;;4.38;2.67;;;-0.20;99.90;;;;;;5054674;28;20170;-43
2024/01/08 08:24:41;;;;;;;6.90;3.38;;;-0.30;99.90;;;;;;5054461;28;20250;-46
2024/01/08 08:27:10;;;;;;;5.30;3.90;;;-0.30;99.90;;;;;;5054596;28;20202;-46
2024/01/08 08:29:46;;;;;;;4.50;3.40;;;-0.20;99.90;;;;;;5054323;28;20169;-45
2024/01/08 08:32:12;;;;;;;5.22;3.30;;;-0.30;99.90;;;;;;5054261;28;20174;-45
2024/01/08 08:34:39;;;;;;;5.20;3.47;;;-0.20;99.90;;;;;;5054124;28;20665;-46
2024/01/08 08:37:08;;;;;;;4.32;3.35;;;-0.20;99.90;;;;;;5054399;28;20171;-45
2024/01/08 08:39:34;;;;;;;3.17;2.70;;;-0.20;99.90;;;;;;5054442;28;20198;-47
2024/01/08 08:42:00;;;;;;;4.78;3.10;;;-0.20;99.90;;;;;;5054148;28;20174;-46
2024/01/08 08:44:25;;;;;;;6.53;3.08;;;-0.10;99.90;;;;;;5054053;28;20174;-45
2024/01/08 08:46:51;;;;;;;4.00;2.85;;;-0.10;99.90;;;;;;5054074;28;20224;-45
2024/01/08 08:49:16;;;;;;;5.55;3.88;;;-0.10;99.90;;;;;;5054918;28;20543;-46
2024/01/08 08:51:43;;;;;;;4.13;2.67;;;0.00;99.90;;;;;;5052930;28;20166;-46
2024/01/08 08:54:08;;;;;;;4.28;3.40;;;0.00;99.90;;;;;;5053798;28;20203;-45
2024/01/08 08:56:34;;;;;;;4.80;2.90;;;-0.10;99.90;;;;;;5053619;28;20218;-46
2024/01/08 08:59:00;;;;;;;4.32;2.97;;;-0.10;99.90;;;;;;5053866;28;20186;-46
2024/01/08 09:01:26;;;;;;;6.65;2.85;;;0.00;99.90;;;;;;5052378;28;20167;-46
2024/01/08 09:03:52;;;;;;;4.45;3.53;;;0.00;99.90;;;;;;5053599;28;20178;-45
2024/01/08 09:06:24;;;;;;;2.95;2.35;;;-0.20;99.90;;;;;;5053657;28;20173;-45
2024/01/08 09:08:53;;;;;;;5.60;3.95;;;-0.20;99.90;;;;;;5053543;28;20159;-45
2024/01/08 09:11:19;;;;;;;4.65;2.90;;;-0.30;99.90;;;;;;5053819;28;20540;-45
2024/01/08 09:13:46;;;;;;;4.55;2.97;;;-0.30;99.90;;;;;;5054153;28;20293;-46
2024/01/08 09:16:12;;;;;;;6.00;3.20;;;-0.40;99.90;;;;;;5053409;28;20162;-47
2024/01/08 09:18:38;;;;;;;6.10;3.63;;;-0.30;99.90;;;;;;5053403;28;20726;-45
2024/01/08 09:21:07;;;;;;;5.13;4.15;;;-0.30;99.90;;;;;;5053355;28;20249;-45
2024/01/08 09:23:32;;;;;;;6.13;4.28;;;-0.30;99.90;;;;;;5053268;28;20196;-45
2024/01/08 09:25:59;;;;;;;3.25;2.80;;;-0.20;99.90;;;;;;5053280;28;20656;-45
2024/01/08 09:28:24;;;;;;;4.90;3.08;;;-0.30;99.90;;;;;;5053460;28;20248;-45
2024/01/08 09:30:51;;;;;;;5.65;3.25;;;-0.20;99.90;;;;;;5053204;28;20626;-45
2024/01/08 09:33:17;;;;;;;3.83;2.47;;;-0.20;99.90;;;;;;5053506;28;20217;-46
2024/01/08 09:35:42;;;;;;;7.00;4.18;;;-0.50;99.90;;;;;;5053513;28;20537;-46
2024/01/08 09:38:08;;;;;;;3.05;2.70;;;-0.10;99.90;;;;;;5053083;28;20185;-45
2024/01/08 09:40:34;;;;;;;6.03;3.67;;;-0.20;99.90;;;;;;5053256;28;20656;-48
2024/01/08 09:43:06;;;;;;;7.35;4.18;;;-0.10;99.90;;;;;;5052991;28;20757;-45
2024/01/08 09:45:32;;;;;;;6.72;3.95;;;-0.10;99.90;;;;;;5053000;28;20187;-45
2024/01/08 09:47:58;;;;;;;7.82;4.65;;;-0.10;99.90;;;;;;5052906;28;20244;-45
2024/01/08 09:50:24;;;;;;;9.57;4.72;;;0.00;99.90;;;;;;5052880;28;20170;-45
2024/01/08 09:52:51;;;;;;;8.45;4.55;;;0.20;99.90;;;;;;5052775;28;20241;-46
2024/01/08 09:55:16;;;;;;;7.10;4.43;;;0.20;99.90;;;;;;5053050;28;20229;-48
2024/01/08 09:57:42;;;;;;;6.88;3.30;;;0.10;99.90;;;;;;5053149;28;20162;-45
2024/01/08 10:00:09;;;;;;;7.65;4.97;;;0.10;99.90;;;;;;5052886;28;20700;-45
2024/01/08 10:02:35;;;;;;;7.10;4.68;;;0.10;99.90;;;;;;5052789;28;20171;-45
2024/01/08 10:05:00;;;;;;;2.53;2.33;;;0.10;99.90;;;;;;5052793;28;20593;-46
2024/01/08 10:07:26;;;;;;;7.28;4.15;;;0.20;99.90;;;;;;5052210;28;20582;-46
2024/01/08 10:09:52;;;;;;;6.28;4.35;;;0.30;99.90;;;;;;5052262;28;20170;-45
2024/01/08 10:12:17;;;;;;;5.65;4.40;;;0.40;99.90;;;;;;5052188;28;20167;-45
2024/01/08 10:14:43;;;;;;;6.20;4.20;;;0.50;99.90;;;;;;5052020;28;20232;-46
2024/01/08 10:17:09;;;;;;;5.85;3.20;;;0.60;99.90;;;;;;5052287;28;20170;-45
2024/01/08 10:19:34;;;;;;;5.63;3.60;;;0.50;99.90;;;;;;5051723;28;20166;-46
2024/01/08 10:22:08;;;;;;;5.05;3.13;;;0.60;99.90;;;;;;5052213;28;20250;-45
2024/01/08 10:24:34;;;;;;;7.55;4.63;;;0.50;99.90;;;;;;5052158;28;20189;-45
2024/01/08 10:26:59;;;;;;;5.70;3.80;;;0.60;99.90;;;;;;5052118;28;20159;-45
2024/01/08 10:29:25;;;;;;;5.25;3.30;;;0.60;99.90;;;;;;5052172;28;20583;-45
2024/01/08 10:31:51;;;;;;;3.95;3.03;;;0.50;99.90;;;;;;5051595;28;20206;-45
2024/01/08 10:34:17;;;;;;;5.45;3.20;;;0.50;99.90;;;;;;5052462;28;20206;-49
2024/01/08 10:36:44;;;;;;;5.95;3.75;;;-1.30;99.90;;;;;;5052334;28;20163;-48
2024/01/08 10:39:10;;;;;;;3.28;2.50;;;0.40;99.90;;;;;;5052039;28;20535;-45
2024/01/08 10:41:36;;;;;;;3.40;2.65;;;0.30;99.90;;;;;;5051990;28;20257;-45
2024/01/08 10:44:03;;;;;;;3.88;2.60;;;0.40;99.90;;;;;;5051794;28;20178;-45
2024/01/08 10:46:37;;;;;;;4.88;2.95;;;0.40;99.90;;;;;;5051893;28;20171;-45
2024/01/08 10:49:09;;;;;;;4.70;2.75;;;0.40;99.90;;;;;;5051735;28;20219;-45
2024/01/08 10:51:42;;;;;;;6.85;3.40;;;0.50;99.90;;;;;;5051681;28;20728;-46
2024/01/08 10:54:08;;;;;;;7.80;3.38;;;0.60;99.90;;;;;;5051495;28;20348;-46
2024/01/08 10:56:33;;;;;;;5.43;3.25;;;0.60;99.90;;;;;;5051397;28;20240;-44
2024/01/08 10:59:02;;;;;;;4.40;3.20;;;0.60;99.90;;;;;;5051511;28;20648;-44
2024/01/08 11:01:34;;;;;;;6.10;3.10;;;0.70;99.90;;;;;;5051239;28;20242;-46
2024/01/08 11:04:02;;;;;;;5.32;3.08;;;0.80;99.90;;;;;;5051481;28;20205;-48
2024/01/08 11:06:30;;;;;;;4.35;2.70;;;0.90;99.90;;;;;;5051684;28;20174;-46
2024/01/08 11:08:57;;;;;;;5.53;3.13;;;1.10;99.90;;;;;;5051472;28;20159;-48
2024/01/08 11:11:23;;;;;;;3.38;2.38;;;1.20;99.90;;;;;;5051672;28;20171;-46
2024/01/08 11:13:49;;;;;;;4.18;2.85;;;1.30;99.90;;;;;;5051017;28;20732;-52
2024/01/08 11:16:25;;;;;;;6.22;2.80;;;1.20;99.90;;;;;;5051657;28;20171;-47
2024/01/08 11:18:51;;;;;;;3.90;2.45;;;1.20;99.90;;;;;;5051210;28;20634;-46
2024/01/08 11:21:23;;;;;;;4.93;3.05;;;1.10;99.90;;;;;;5051727;28;20178;-46
2024/01/08 11:23:49;;;;;;;4.88;2.47;;;1.20;99.90;;;;;;5051260;28;20193;-49
2024/01/08 11:26:18;;;;;;;5.45;2.67;;;1.10;99.90;;;;;;5051125;28;20255;-49
2024/01/08 11:29:00;;;;;;;4.82;2.95;;;1.50;99.90;;;;;;5051541;28;20520;-49
2024/01/08 11:31:29;;;;;;;5.88;3.45;;;1.00;99.90;;;;;;5051020;28;20174;-51
2024/01/08 11:34:17;;;;;;;4.40;2.95;;;1.00;99.90;;;;;;5050817;28;20202;-48
2024/01/08 11:36:47;;;;;;;5.30;2.90;;;1.10;99.90;;;;;;5051048;28;20166;-46
2024/01/08 11:39:19;;;;;;;2.92;2.38;;;0.90;99.90;;;;;;5050878;28;20695;-49
2024/01/08 11:41:48;;;;;;;4.10;2.95;;;0.90;99.90;;;;;;5051464;28;20197;-50
2024/01/08 11:44:16;;;;;;;4.05;2.40;;;0.70;99.90;;;;;;5050911;28;20163;-46
2024/01/08 11:46:43;;;;;;;4.82;2.13;;;0.60;99.90;;;;;;5051180;28;20170;-48
2024/01/08 11:49:08;;;;;;;4.43;2.95;;;0.50;99.90;;;;;;5050768;28;20719;-46
2024/01/08 11:51:34;;;;;;;3.42;2.25;;;0.30;99.90;;;;;;5050622;28;20163;-48
2024/01/08 11:54:08;;;;;;;4.30;2.50;;;0.40;99.90;;;;;;5051108;28;20780;-54
2024/01/08 11:56:37;;;;;;;4.03;2.90;;;0.50;99.90;;;;;;5050760;28;20214;-52
2024/01/08 11:59:02;;;;;;;4.85;2.40;;;0.20;98.60;;;;;;5051137;28;20179;-51
2024/01/08 12:01:28;;;;;;;3.17;2.15;;;0.40;98.40;;;;;;5050853;28;20167;-52
2024/01/08 12:04:00;;;;;;;3.90;2.88;;;0.30;96.80;;;;;;5051033;28;20174;-53
2024/01/08 12:06:29;;;;;;;3.55;2.20;;;0.30;96.70;;;;;;5050417;28;20279;-54
2024/01/08 12:08:54;;;;;;;2.55;1.88;;;0.20;95.30;;;;;;5050845;28;20163;-49
2024/01/08 12:11:20;;;;;;;3.03;2.00;;;0.20;94.70;;;;;;5050697;28;20178;-53
2024/01/08 12:13:46;;;;;;;3.10;2.15;;;0.30;94.30;;;;;;5049808;28;20244;-45
2024/01/08 12:16:13;;;;;;;2.67;2.28;;;0.10;93.30;;;;;;5050446;28;20170;-48
2024/01/08 12:18:41;;;;;;;3.95;2.50;;;0.10;93.20;;;;;;5050748;28;20173;-50
2024/01/08 12:21:07;;;;;;;3.92;2.40;;;0.10;92.90;;;;;;5050714;28;20250;-46
2024/01/08 12:23:33;;;;;;;1.98;1.42;;;0.20;93.40;;;;;;5050527;28;20593;-46
2024/01/08 12:25:59;;;;;;;3.20;2.25;;;0.20;93.20;;;;;;5050372;28;20519;-47
2024/01/08 12:28:28;;;;;;;8.82;2.15;;;0.20;91.30;;;;;;5050568;28;20530;-46
2024/01/08 12:30:54;;;;;;;3.78;2.22;;;0.10;91.00;;;;;;5049403;28;20262;-49
2024/01/08 12:33:20;;;;;;;4.18;2.45;;;0.10;90.20;;;;;;5049605;28;20289;-47
2024/01/08 12:35:51;;;;;;;4.22;2.15;;;0.00;90.40;;;;;;5051178;28;20245;-45
2024/01/08 12:38:16;;;;;;;2.97;2.25;;;0.10;90.60;;;;;;5052455;28;20167;-48
2024/01/08 12:40:42;;;;;;;3.72;2.28;;;0.10;90.30;;;;;;5054036;28;20494;-47
2024/01/08 12:43:07;;;;;;;5.38;2.03;;;0.10;90.40;;;;;;5052474;28;20227;-45